Time;durP1;ratioP1;P1;durP2;ratioP2;P2;SDS_P1;SDS_P2;PMS_P1;PMS_P2;Temp;Humidity;BMP_temperature;BMP_pressure;BME280_temperature;BME280_humidity;BME280_pressure;Samples;Min_cycle;Max_cycle;Signal;HPM_P1;HPM_P2
2021/11/30 00:00:15;;;;;;;1.97;1.47;;;;;;;-145.69;100.00;72887.09;5117275;28;20296;-75
2021/11/30 00:02:42;;;;;;;2.83;1.53;;;;;;;-145.69;100.00;72887.09;5117383;28;20193;-76
2021/11/30 00:05:11;;;;;;;3.67;1.87;;;;;;;-145.69;100.00;72891.09;5117010;28;20232;-76
2021/11/30 00:07:38;;;;;;;3.13;1.67;;;;;;;-145.69;100.00;72899.06;5117329;28;20204;-76
2021/11/30 00:12:55;;;;;;;4.80;1.73;;;;;;;-145.69;100.00;72899.06;5117203;28;20334;-75
2021/11/30 00:15:21;;;;;;;4.23;1.90;;;;;;;-145.69;100.00;72905.03;5116752;28;20205;-76
2021/11/30 00:17:50;;;;;;;3.00;1.90;;;;;;;-145.69;100.00;72905.03;5117055;28;20209;-75
2021/11/30 00:20:17;;;;;;;5.13;1.87;;;;;;;-145.69;100.00;72905.03;5116630;28;20226;-75
2021/11/30 00:22:43;;;;;;;3.40;1.77;;;;;;;-145.69;100.00;72911.00;5116937;28;20209;-75
2021/11/30 00:25:11;;;;;;;2.77;1.97;;;;;;;-145.69;100.00;72918.97;5116788;28;20656;-76
2021/11/30 00:27:39;;;;;;;4.37;2.00;;;;;;;-145.69;100.00;72913.00;5116588;28;20194;-75
2021/11/30 00:30:09;;;;;;;6.47;2.00;;;;;;;-145.69;100.00;72918.97;5116547;28;20221;-75
2021/11/30 00:32:35;;;;;;;5.57;1.83;;;;;;;-145.69;100.00;72918.97;5116618;28;20201;-76
2021/11/30 00:35:04;;;;;;;3.33;1.60;;;;;;;-145.69;100.00;72914.97;5116545;28;20208;-75
2021/11/30 00:37:31;;;;;;;2.77;1.90;;;;;;;-145.69;100.00;72922.94;5116678;28;20205;-76
2021/11/30 00:39:59;;;;;;;3.90;1.80;;;;;;;-145.69;100.00;72918.97;5116378;28;20205;-76
2021/11/30 00:42:27;;;;;;;4.20;2.00;;;;;;;-145.69;100.00;72914.97;5116282;28;20206;-76
2021/11/30 00:44:54;;;;;;;5.73;1.80;;;;;;;-145.69;100.00;72926.91;5116313;28;20201;-76
2021/11/30 00:47:27;;;;;;;3.10;2.00;;;;;;;-145.69;100.00;72924.94;5116496;28;20712;-77
2021/11/30 00:49:54;;;;;;;4.83;1.80;;;;;;;-145.69;100.00;72922.94;5116545;28;20568;-77
2021/11/30 00:52:20;;;;;;;2.73;1.90;;;;;;;-145.69;100.00;72930.91;5116510;28;20198;-76
2021/11/30 00:54:49;;;;;;;2.07;1.50;;;;;;;-145.69;100.00;72928.91;5116400;28;20198;-76
2021/11/30 00:57:15;;;;;;;5.53;1.83;;;;;;;-145.69;100.00;72930.91;5116275;28;20292;-76
2021/11/30 00:59:43;;;;;;;1.77;1.63;;;;;;;-145.69;100.00;72930.91;5115131;28;20208;-76
2021/11/30 01:02:10;;;;;;;3.27;1.93;;;;;;;-145.69;100.00;72930.91;5118628;27;20206;-76
2021/11/30 01:04:37;;;;;;;2.90;1.70;;;;;;;-145.69;100.00;72930.91;5116059;28;20207;-76
2021/11/30 01:07:04;;;;;;;2.13;1.67;;;;;;;-145.69;100.00;72936.88;5116011;28;20691;-76
2021/11/30 01:09:31;;;;;;;4.53;1.93;;;;;;;-145.69;100.00;72938.88;5116067;28;20229;-76
2021/11/30 01:11:57;;;;;;;4.37;2.10;;;;;;;-145.69;100.00;72938.88;5115950;28;20202;-76
2021/11/30 01:14:24;;;;;;;1.97;1.50;;;;;;;-145.69;100.00;72946.81;5119096;27;20189;-77
2021/11/30 01:16:52;;;;;;;2.73;1.83;;;;;;;-145.69;100.00;72944.84;5136270;27;20679;-76
2021/11/30 01:19:18;;;;;;;5.50;2.10;;;;;;;-145.69;100.00;72950.81;5136405;27;20197;-76
2021/11/30 01:21:46;;;;;;;1.90;1.67;;;;;;;-145.69;100.00;72952.78;5136260;27;20208;-77
2021/11/30 01:24:12;;;;;;;1.50;1.40;;;;;;;-145.69;100.00;72956.78;5135446;27;20203;-76
2021/11/30 01:26:39;;;;;;;3.63;1.93;;;;;;;-145.69;100.00;72964.75;5136311;27;20554;-76
2021/11/30 01:29:06;;;;;;;2.63;1.90;;;;;;;-145.69;100.00;72958.78;5136312;27;20224;-77
2021/11/30 01:31:33;;;;;;;2.30;1.40;;;;;;;-145.69;100.00;72962.75;5136375;27;20193;-76
2021/11/30 01:34:01;;;;;;;4.30;1.50;;;;;;;-145.69;100.00;72956.78;5136038;27;20200;-76
2021/11/30 01:36:28;;;;;;;2.47;1.70;;;;;;;-145.69;100.00;72966.72;5135917;27;20655;-76
2021/11/30 01:38:55;;;;;;;3.57;1.77;;;;;;;-145.69;100.00;72964.75;5135840;27;20299;-76
2021/11/30 01:41:22;;;;;;;5.77;1.80;;;;;;;-145.69;100.00;72962.75;5136366;27;20590;-76
2021/11/30 01:43:51;;;;;;;2.17;1.83;;;;;;;-145.69;100.00;72968.72;5136130;27;20200;-76
2021/11/30 01:46:27;;;;;;;5.07;2.00;;;;;;;-145.69;100.00;72966.72;5135989;27;20275;-77
2021/11/30 01:49:15;;;;;;;4.33;1.90;;;;;;;-145.69;100.00;72966.72;5135854;27;20216;-76
2021/11/30 01:51:42;;;;;;;6.00;1.80;;;;;;;-145.69;100.00;72974.69;5136160;27;20205;-75
2021/11/30 01:54:09;;;;;;;3.30;2.00;;;;;;;-145.69;100.00;72982.66;5135723;27;20193;-76
2021/11/30 01:56:36;;;;;;;4.33;1.73;;;;;;;-145.69;100.00;72982.66;5135898;27;20208;-76
2021/11/30 01:59:03;;;;;;;2.73;1.67;;;;;;;-145.69;100.00;72988.63;5135637;27;20224;-76
2021/11/30 02:01:30;;;;;;;3.17;1.73;;;;;;;-145.69;100.00;72992.59;5135836;27;20203;-76
2021/11/30 02:03:56;;;;;;;2.93;1.70;;;;;;;-145.69;100.00;72994.59;5135526;27;20196;-75
2021/11/30 02:06:23;;;;;;;2.13;1.53;;;;;;;-145.69;100.00;72994.59;5135799;27;20208;-75
2021/11/30 02:08:50;;;;;;;1.90;1.60;;;;;;;-145.69;100.00;72994.59;5135305;27;20231;-76
2021/11/30 02:11:18;;;;;;;4.70;1.63;;;;;;;-145.69;100.00;73004.56;5134446;27;20246;-75
2021/11/30 02:13:45;;;;;;;4.90;2.10;;;;;;;-145.69;100.00;72998.59;5135372;27;20264;-76
2021/11/30 02:16:12;;;;;;;4.03;1.97;;;;;;;-145.69;100.00;73004.56;5135178;27;20201;-76
2021/11/30 02:18:41;;;;;;;2.53;1.87;;;;;;;-145.69;100.00;73000.56;5135808;27;20207;-75
2021/11/30 02:21:10;;;;;;;3.13;1.50;;;;;;;-145.69;100.00;72994.59;5135197;27;20224;-75
2021/11/30 02:23:40;;;;;;;7.90;1.90;;;;;;;-145.69;100.00;72994.59;5135316;27;20245;-76
2021/11/30 02:26:11;;;;;;;4.33;2.20;;;;;;;-145.69;100.00;72994.59;5135434;27;20284;-75
2021/11/30 02:28:39;;;;;;;2.50;1.70;;;;;;;-145.69;100.00;72996.59;5135138;27;20197;-75
2021/11/30 02:31:07;;;;;;;2.40;1.60;;;;;;;-145.69;100.00;73002.56;5135002;27;20200;-76
2021/11/30 02:33:34;;;;;;;1.83;1.57;;;;;;;-145.69;100.00;73006.53;5135091;27;20197;-75
2021/11/30 02:36:02;;;;;;;5.37;1.77;;;;;;;-145.69;100.00;73010.53;5135053;27;20201;-75
2021/11/30 02:38:30;;;;;;;12.27;1.63;;;;;;;-145.69;100.00;73006.53;5135013;27;20207;-75
2021/11/30 02:40:56;;;;;;;7.80;1.70;;;;;;;-145.69;100.00;72996.59;5134758;27;20197;-76
2021/11/30 02:43:22;;;;;;;3.20;1.47;;;;;;;-145.69;100.00;72996.59;5134673;27;20193;-75
2021/11/30 02:45:49;;;;;;;4.87;1.50;;;;;;;-145.69;100.00;73012.53;5135182;27;20200;-75
2021/11/30 02:48:15;;;;;;;4.37;1.60;;;;;;;-145.69;100.00;73012.53;5134595;27;20207;-75
2021/11/30 02:50:43;;;;;;;1.93;1.50;;;;;;;-145.69;100.00;73012.53;5134764;27;20225;-75
2021/11/30 02:53:15;;;;;;;2.40;1.40;;;;;;;-145.69;100.00;73014.50;5134674;27;20196;-75
2021/11/30 02:55:45;;;;;;;6.13;1.40;;;;;;;-145.69;100.00;72990.63;5134587;27;20201;-75
2021/11/30 02:58:11;;;;;;;5.67;1.70;;;;;;;-145.69;100.00;72998.59;5134604;27;20271;-75
2021/11/30 03:00:38;;;;;;;3.47;1.63;;;;;;;-145.69;100.00;72990.63;5122114;27;20288;-75
2021/11/30 03:03:04;;;;;;;4.67;1.70;;;;;;;-145.69;100.00;72990.63;5114098;28;20257;-76
2021/11/30 03:05:31;;;;;;;2.63;1.60;;;;;;;-145.69;100.00;73000.56;5113859;28;20713;-75
2021/11/30 03:07:57;;;;;;;4.40;1.80;;;;;;;-145.69;100.00;72988.63;5114077;28;20250;-75
2021/11/30 03:10:24;;;;;;;7.33;1.33;;;;;;;-145.69;100.00;72982.66;5113613;28;20584;-76
2021/11/30 03:12:53;;;;;;;6.27;1.70;;;;;;;-145.69;100.00;72982.66;5113826;28;20541;-75
2021/11/30 03:15:22;;;;;;;2.83;1.30;;;;;;;-145.69;100.00;72974.69;5113832;28;20198;-76
2021/11/30 03:17:49;;;;;;;1.87;1.30;;;;;;;-145.69;100.00;72974.69;5113949;28;20197;-75
2021/11/30 03:20:17;;;;;;;2.10;1.23;;;;;;;-145.69;100.00;72982.66;5113790;28;20229;-76
2021/11/30 03:22:46;;;;;;;5.80;1.60;;;;;;;-145.69;100.00;72964.75;5113431;28;20695;-76
2021/11/30 03:25:13;;;;;;;3.97;1.33;;;;;;;-145.69;100.00;72966.72;5114090;28;20232;-76
2021/11/30 03:27:39;;;;;;;1.40;1.30;;;;;;;-145.69;100.00;72962.75;5113720;28;20193;-76
2021/11/30 03:30:10;;;;;;;8.10;1.40;;;;;;;-145.69;100.00;72970.72;5113625;28;20232;-76
2021/11/30 03:35:21;;;;;;;2.27;1.40;;;;;;;-145.69;100.00;72986.63;5113593;28;20242;-76
2021/11/30 03:37:47;;;;;;;2.40;1.27;;;;;;;-145.69;100.00;72988.63;5113530;28;20205;-76
2021/11/30 03:40:13;;;;;;;2.20;1.47;;;;;;;-145.69;100.00;72988.63;5113775;28;20194;-76
2021/11/30 03:42:40;;;;;;;10.50;1.53;;;;;;;-145.69;100.00;72978.69;5113552;28;20247;-76
2021/11/30 03:45:09;;;;;;;7.77;1.77;;;;;;;-145.69;100.00;72988.63;5113697;28;20198;-75
2021/11/30 03:47:35;;;;;;;2.47;1.10;;;;;;;-145.69;100.00;72978.69;5113584;28;20304;-76
2021/11/30 03:50:02;;;;;;;2.23;1.23;;;;;;;-145.69;100.00;72978.69;5113364;28;20221;-76
2021/11/30 03:52:28;;;;;;;3.30;1.63;;;;;;;-145.69;100.00;72972.72;5113773;28;20251;-76
2021/11/30 03:54:54;;;;;;;3.37;1.40;;;;;;;-145.69;100.00;72966.72;5113571;28;20201;-75
2021/11/30 03:57:21;;;;;;;3.43;1.40;;;;;;;-145.69;100.00;72952.78;5113669;28;20582;-76
2021/11/30 03:59:47;;;;;;;3.43;1.23;;;;;;;-145.69;99.10;72960.75;5113470;28;20197;-75
2021/11/30 04:02:16;;;;;;;2.93;0.90;;;;;;;-145.69;99.27;72952.78;5113270;28;20201;-75
2021/11/30 04:04:45;;;;;;;4.07;1.30;;;;;;;-145.69;99.56;72946.81;5113480;28;20227;-76
2021/11/30 04:07:11;;;;;;;1.30;1.10;;;;;;;-145.69;100.00;72956.78;5113032;28;20652;-76
2021/11/30 04:09:38;;;;;;;1.80;1.20;;;;;;;-145.69;95.84;72938.88;5113149;28;20557;-76
2021/11/30 04:12:07;;;;;;;1.33;1.20;;;;;;;-145.69;97.83;72934.88;5112898;28;20202;-76
2021/11/30 04:14:33;;;;;;;5.00;1.10;;;;;;;-145.69;98.28;72934.88;5113086;28;20198;-76
2021/11/30 04:17:00;;;;;;;3.13;0.90;;;;;;;-145.69;97.02;72938.88;5113073;28;20231;-76
2021/11/30 04:19:28;;;;;;;2.90;1.30;;;;;;;-145.69;97.50;72920.94;5113114;28;20282;-76
2021/11/30 04:21:54;;;;;;;3.13;1.30;;;;;;;-145.69;98.04;72926.91;5113332;28;20201;-76
2021/11/30 04:24:21;;;;;;;2.50;1.30;;;;;;;-145.69;97.64;72930.91;5113437;28;20201;-76
2021/11/30 04:26:47;;;;;;;3.57;1.70;;;;;;;-145.69;96.96;72926.91;5113109;28;20712;-76
2021/11/30 04:29:13;;;;;;;4.03;1.30;;;;;;;-145.69;96.37;72924.94;5113159;28;20201;-76
2021/11/30 04:31:40;;;;;;;4.27;1.47;;;;;;;-145.69;97.82;72934.88;5113061;28;20197;-76
2021/11/30 04:34:06;;;;;;;3.43;1.73;;;;;;;-145.69;99.18;72938.88;5114031;28;20647;-76
2021/11/30 04:36:34;;;;;;;3.03;1.30;;;;;;;-145.69;99.54;72938.88;5116824;28;20193;-76
2021/11/30 04:39:02;;;;;;;4.00;1.27;;;;;;;-145.69;99.09;72934.88;5116936;28;20259;-76
2021/11/30 04:41:28;;;;;;;4.40;1.60;;;;;;;-145.69;98.83;72938.88;5116974;28;20198;-76
2021/11/30 04:43:55;;;;;;;9.40;1.20;;;;;;;-145.69;96.79;72934.88;5116620;28;20720;-76
2021/11/30 04:46:24;;;;;;;2.57;1.47;;;;;;;-145.69;97.76;72926.91;5116670;28;20194;-76
2021/11/30 04:48:56;;;;;;;2.03;1.50;;;;;;;-145.69;98.47;72926.91;5116757;28;20619;-76
2021/11/30 04:51:24;;;;;;;2.53;1.27;;;;;;;-145.69;98.50;72924.94;5116451;28;20695;-76
2021/11/30 04:53:51;;;;;;;3.00;1.20;;;;;;;-145.69;99.44;72926.91;5116544;28;20201;-76
2021/11/30 04:56:18;;;;;;;3.40;1.40;;;;;;;-145.69;99.86;72934.88;5116438;28;20594;-76
2021/11/30 04:58:45;;;;;;;2.00;1.30;;;;;;;-145.69;100.00;72944.84;5116262;28;20209;-76
2021/11/30 05:01:12;;;;;;;3.37;1.60;;;;;;;-145.69;100.00;72932.91;5116683;28;20213;-76
2021/11/30 05:03:39;;;;;;;2.70;1.47;;;;;;;-145.69;98.56;72920.94;5116544;28;20541;-76
2021/11/30 05:06:07;;;;;;;1.87;1.30;;;;;;;-145.69;100.00;72918.97;5118720;27;20197;-77
2021/11/30 05:08:34;;;;;;;2.87;1.70;;;;;;;-145.69;99.64;72918.97;5116108;28;20709;-76
2021/11/30 05:11:02;;;;;;;2.87;1.30;;;;;;;-145.69;99.57;72916.97;5116237;28;20221;-76
2021/11/30 05:13:29;;;;;;;6.30;1.57;;;;;;;-145.69;99.58;72918.97;5116112;28;20697;-76
2021/11/30 05:15:55;;;;;;;2.90;1.53;;;;;;;-145.69;98.04;72911.00;5116344;28;20274;-76
2021/11/30 05:18:22;;;;;;;5.30;1.80;;;;;;;-145.69;99.86;72922.94;5116139;28;20198;-76
2021/11/30 05:20:49;;;;;;;6.40;1.40;;;;;;;-145.69;98.02;72920.94;5115825;28;20229;-76
2021/11/30 05:23:23;;;;;;;3.23;1.53;;;;;;;-145.69;100.00;72922.94;5115802;28;20626;-76
2021/11/30 05:25:49;;;;;;;5.93;1.80;;;;;;;-145.69;99.58;72926.91;5115729;28;20276;-76
2021/11/30 05:28:17;;;;;;;5.83;1.53;;;;;;;-145.69;100.00;72934.88;5115880;28;20202;-76
2021/11/30 05:30:43;;;;;;;2.60;1.80;;;;;;;-145.69;99.46;72922.94;5115453;28;20225;-76
2021/11/30 05:33:11;;;;;;;3.40;1.40;;;;;;;-145.69;99.96;72922.94;5115710;28;20230;-75
2021/11/30 05:35:39;;;;;;;3.93;1.70;;;;;;;-145.69;100.00;72924.94;5115619;28;20710;-76
2021/11/30 05:38:05;;;;;;;1.80;1.50;;;;;;;-145.69;100.00;72930.91;5115400;28;20202;-75
2021/11/30 05:40:32;;;;;;;5.63;1.73;;;;;;;-145.69;100.00;72934.88;5115374;28;20198;-75
2021/11/30 05:42:59;;;;;;;5.47;1.90;;;;;;;-145.69;99.99;72926.91;5115748;28;20243;-76
2021/11/30 05:45:27;;;;;;;4.17;1.87;;;;;;;-145.69;100.00;72934.88;5115345;28;20213;-76
2021/11/30 05:47:54;;;;;;;3.50;1.70;;;;;;;-145.69;100.00;72930.91;5115327;28;20293;-76
2021/11/30 05:50:21;;;;;;;2.63;1.80;;;;;;;-145.69;100.00;72930.91;5115240;28;20718;-76
2021/11/30 05:52:47;;;;;;;5.97;1.87;;;;;;;-145.69;100.00;72932.91;5115247;28;20259;-76
2021/11/30 05:55:14;;;;;;;3.30;2.03;;;;;;;-145.69;100.00;72928.91;5115281;28;20652;-75
2021/11/30 05:57:41;;;;;;;4.33;1.90;;;;;;;-145.69;100.00;72930.91;5115329;28;20234;-76
2021/11/30 06:00:10;;;;;;;3.20;1.87;;;;;;;-145.69;100.00;72928.91;5114972;28;20667;-76
2021/11/30 06:02:52;;;;;;;4.57;2.17;;;;;;;-145.69;100.00;72928.91;5115144;28;20204;-75
2021/11/30 06:05:19;;;;;;;4.30;2.30;;;;;;;-145.69;100.00;72930.91;5114909;28;20201;-75
2021/11/30 06:07:45;;;;;;;5.00;1.90;;;;;;;-145.69;100.00;72928.91;5114979;28;20205;-75
2021/11/30 06:10:12;;;;;;;4.23;2.03;;;;;;;-145.69;100.00;72934.88;5114864;28;20740;-76
2021/11/30 06:12:38;;;;;;;4.13;1.90;;;;;;;-145.69;99.42;72922.94;5114882;28;20679;-76
2021/11/30 06:15:05;;;;;;;2.90;1.77;;;;;;;-145.69;100.00;72930.91;5114790;28;20721;-76
2021/11/30 06:17:32;;;;;;;7.17;2.53;;;;;;;-145.69;100.00;72936.88;5114828;28;20254;-76
2021/11/30 06:20:00;;;;;;;5.57;1.93;;;;;;;-145.69;100.00;72926.91;5114658;28;20282;-75
2021/11/30 06:22:27;;;;;;;5.93;1.97;;;;;;;-145.69;100.00;72918.97;5114921;28;20355;-76
2021/11/30 06:24:53;;;;;;;4.07;1.90;;;;;;;-145.69;100.00;72922.94;5114783;28;20197;-75
2021/11/30 06:27:20;;;;;;;10.33;2.33;;;;;;;-145.69;100.00;72928.91;5114679;28;20197;-76
2021/11/30 06:29:46;;;;;;;3.33;1.90;;;;;;;-145.69;100.00;72926.91;5114564;28;20596;-76
2021/11/30 06:32:13;;;;;;;6.83;1.83;;;;;;;-145.69;100.00;72914.97;5114560;28;20714;-75
2021/11/30 06:34:39;;;;;;;3.87;1.90;;;;;;;-145.69;100.00;72922.94;5114294;28;20202;-76
2021/11/30 06:37:08;;;;;;;6.20;2.00;;;;;;;-145.69;100.00;72922.94;5114625;28;20533;-75
2021/11/30 06:39:35;;;;;;;7.30;2.07;;;;;;;-145.69;100.00;72928.91;5114752;28;20291;-76
2021/11/30 06:42:02;;;;;;;3.53;1.70;;;;;;;-145.69;100.00;72914.97;5114451;28;20207;-76
2021/11/30 06:44:28;;;;;;;3.17;2.10;;;;;;;-145.69;100.00;72911.00;5114305;28;20212;-76
2021/11/30 06:46:56;;;;;;;2.43;1.90;;;;;;;-145.69;100.00;72914.97;5114279;28;20193;-75
2021/11/30 06:49:23;;;;;;;1.50;1.40;;;;;;;-145.69;100.00;72903.03;5114439;28;20220;-76
2021/11/30 06:51:49;;;;;;;2.63;1.60;;;;;;;-145.69;100.00;72895.06;5114262;28;20232;-75
2021/11/30 06:54:17;;;;;;;4.20;2.20;;;;;;;-145.69;100.00;72899.06;5114419;28;20209;-76
2021/11/30 06:56:44;;;;;;;2.77;1.40;;;;;;;-145.69;100.00;72899.06;5113433;28;20202;-75
2021/11/30 06:59:10;;;;;;;2.37;1.70;;;;;;;-145.69;100.00;72895.06;5113877;28;20203;-76
2021/11/30 07:01:37;;;;;;;4.07;1.53;;;;;;;-145.69;100.00;72891.09;5116432;27;20258;-75
2021/11/30 07:04:04;;;;;;;4.67;2.00;;;;;;;-145.69;100.00;72887.09;5114073;28;20216;-76
2021/11/30 07:06:38;;;;;;;3.60;1.70;;;;;;;-145.69;100.00;72881.13;5113950;28;20197;-76
2021/11/30 07:09:17;;;;;;;6.60;2.03;;;;;;;-145.69;100.00;72891.09;5113948;28;20225;-76
2021/11/30 07:11:57;;;;;;;2.90;1.80;;;;;;;-145.69;100.00;72883.13;5113761;28;20221;-76
2021/11/30 07:14:23;;;;;;;4.30;1.77;;;;;;;-145.69;100.00;72899.06;5113826;28;20203;-77
2021/11/30 07:16:49;;;;;;;2.77;2.03;;;;;;;-145.69;100.00;72889.09;5113819;28;20250;-77
2021/11/30 07:19:16;;;;;;;6.60;1.97;;;;;;;-145.69;100.00;72911.00;5113429;28;20652;-77
2021/11/30 07:21:44;;;;;;;3.53;1.70;;;;;;;-145.69;100.00;72899.06;5113722;28;20606;-77
2021/11/30 07:24:10;;;;;;;5.00;2.00;;;;;;;-145.69;100.00;72899.06;5113854;28;20225;-76
2021/11/30 07:26:37;;;;;;;3.33;1.73;;;;;;;-145.69;100.00;72891.09;5113346;28;20224;-76
2021/11/30 07:29:05;;;;;;;2.87;1.83;;;;;;;-145.69;100.00;72893.09;5113589;28;20201;-76
2021/11/30 07:31:32;;;;;;;3.50;2.00;;;;;;;-145.69;100.00;72877.16;5113634;28;20225;-76
2021/11/30 07:34:00;;;;;;;2.73;1.73;;;;;;;-145.69;100.00;72877.16;5113513;28;20197;-76
2021/11/30 07:36:28;;;;;;;20.90;7.40;;;;;;;-145.69;100.00;72885.13;5113460;28;20201;-78
2021/11/30 07:38:54;;;;;;;3.77;2.63;;;;;;;-145.69;100.00;72871.19;5113727;28;20269;-77
2021/11/30 07:41:22;;;;;;;4.47;2.13;;;;;;;-145.69;100.00;72853.28;5113266;28;20254;-77
2021/11/30 07:43:49;;;;;;;5.70;2.33;;;;;;;-145.69;100.00;72853.28;5113906;28;20254;-77
2021/11/30 07:46:16;;;;;;;4.70;1.80;;;;;;;-145.69;100.00;72863.22;5113873;28;20194;-77
2021/11/30 07:48:43;;;;;;;3.37;1.90;;;;;;;-145.69;100.00;72863.22;5113553;28;20218;-77
2021/11/30 07:51:10;;;;;;;3.77;1.77;;;;;;;-145.69;100.00;72847.28;5113736;28;20626;-76
2021/11/30 07:53:41;;;;;;;4.10;1.87;;;;;;;-145.69;100.00;72841.31;5114330;28;20204;-77
2021/11/30 07:56:07;;;;;;;3.90;2.00;;;;;;;-145.69;100.00;72839.34;5113377;28;20298;-77
2021/11/30 07:58:34;;;;;;;4.23;2.17;;;;;;;-145.69;100.00;72831.38;5113364;28;20197;-77
2021/11/30 08:01:00;;;;;;;3.67;1.60;;;;;;;-145.69;100.00;72831.38;5113756;28;20197;-77
2021/11/30 08:03:28;;;;;;;3.50;1.80;;;;;;;-145.69;100.00;72819.44;5113520;28;20197;-77
2021/11/30 08:05:55;;;;;;;4.40;1.73;;;;;;;-145.69;100.00;72829.38;5113393;28;20297;-77
2021/11/30 08:08:21;;;;;;;3.87;2.03;;;;;;;-145.69;100.00;72813.47;5113207;28;20197;-77
2021/11/30 08:10:48;;;;;;;4.57;2.20;;;;;;;-145.69;100.00;72811.47;5117265;28;20278;-77
2021/11/30 08:13:14;;;;;;;2.70;1.93;;;;;;;-145.69;100.00;72805.50;5117372;27;20201;-76
2021/11/30 08:15:41;;;;;;;3.67;2.00;;;;;;;-145.69;100.00;72809.47;5117430;28;20205;-77
2021/11/30 08:18:08;;;;;;;4.17;1.90;;;;;;;-145.69;100.00;72789.56;5116400;28;20427;-76
2021/11/30 08:20:36;;;;;;;4.43;2.10;;;;;;;-145.69;99.87;72767.69;5116823;28;20481;-76
2021/11/30 08:23:04;;;;;;;3.93;2.00;;;;;;;-145.69;100.00;72765.69;5116839;28;20574;-77
2021/11/30 08:25:30;;;;;;;2.80;1.87;;;;;;;-145.69;100.00;72763.69;5117010;28;20206;-76
2021/11/30 08:27:57;;;;;;;2.30;1.40;;;;;;;-145.69;99.92;72761.69;5116955;28;20197;-76
2021/11/30 08:30:24;;;;;;;3.70;1.50;;;;;;;-145.69;98.97;72755.72;5116921;28;20675;-77
2021/11/30 08:32:50;;;;;;;2.43;1.63;;;;;;;-145.69;99.41;72751.75;5116909;28;20227;-76
2021/11/30 08:35:17;;;;;;;2.87;1.30;;;;;;;-145.69;99.78;72737.81;5116535;28;20201;-77
2021/11/30 08:37:45;;;;;;;5.57;1.97;;;;;;;-145.69;99.03;72731.84;5116617;28;20271;-77
2021/11/30 08:40:13;;;;;;;3.63;2.07;;;;;;;-145.69;98.62;72739.81;5116704;28;20197;-77
2021/11/30 08:42:39;;;;;;;6.27;1.40;;;;;;;-145.69;99.18;72743.78;5116972;28;20220;-77
2021/11/30 08:45:08;;;;;;;1.73;1.47;;;;;;;-145.69;97.81;72737.81;5116728;28;20251;-76
2021/11/30 08:47:36;;;;;;;3.93;1.73;;;;;;;-145.69;98.48;72723.88;5116289;28;20658;-76
2021/11/30 08:50:05;;;;;;;3.00;1.40;;;;;;;-145.69;97.22;72727.88;5116231;28;20284;-76
2021/11/30 08:52:31;;;;;;;1.57;1.20;;;;;;;-145.69;96.77;72723.88;5116372;28;20229;-75
2021/11/30 08:54:59;;;;;;;3.07;1.43;;;;;;;-145.69;97.72;72703.97;5118723;27;20197;-76
2021/11/30 08:57:27;;;;;;;4.03;1.50;;;;;;;-145.69;97.31;72698.00;5116313;28;20202;-75
2021/11/30 09:02:51;;;;;;;1.43;1.33;;;;;;;-145.69;96.41;72692.03;5116713;28;20220;-76
2021/11/30 09:05:20;;;;;;;3.43;1.50;;;;;;;-145.69;95.15;72666.16;5116221;28;20246;-76
2021/11/30 09:07:47;;;;;;;3.00;1.30;;;;;;;-145.69;96.23;72668.16;5116065;28;20198;-76
2021/11/30 09:10:16;;;;;;;1.77;1.13;;;;;;;-145.69;95.73;72672.13;5116075;28;20208;-76
2021/11/30 09:12:42;;;;;;;3.43;1.90;;;;;;;-145.69;97.78;72676.09;5115871;28;20229;-75
2021/11/30 09:15:09;;;;;;;1.70;1.20;;;;;;;-145.69;97.08;72680.09;5115852;28;20568;-76
2021/11/30 09:17:37;;;;;;;1.63;1.27;;;;;;;-145.69;96.15;72682.09;5116206;28;20254;-78
2021/11/30 09:20:04;;;;;;;2.10;1.10;;;;;;;-145.69;95.95;72684.06;5130625;27;20229;-77
2021/11/30 09:22:31;;;;;;;1.90;1.20;;;;;;;-145.69;95.73;72682.09;5136471;27;20204;-76
2021/11/30 09:25:00;;;;;;;4.07;1.10;;;;;;;-145.69;96.60;72662.19;5136181;27;20643;-76
2021/11/30 09:27:28;;;;;;;1.53;1.00;;;;;;;-145.69;97.50;72658.19;5136036;27;20735;-76
2021/11/30 09:29:55;;;;;;;5.10;1.20;;;;;;;-145.69;96.00;72648.25;5136250;27;20200;-77
2021/11/30 09:32:24;;;;;;;1.30;1.20;;;;;;;-145.69;96.41;72650.22;5136131;27;20300;-76
2021/11/30 09:34:51;;;;;;;1.93;1.30;;;;;;;-145.69;95.39;72660.19;5136320;27;20207;-77
2021/11/30 09:37:17;;;;;;;3.03;1.43;;;;;;;-145.69;97.24;72632.31;5136257;27;20565;-77
2021/11/30 09:39:44;;;;;;;2.77;1.20;;;;;;;-145.69;96.43;72630.31;5136037;27;20201;-76
2021/11/30 09:42:12;;;;;;;3.07;1.40;;;;;;;-145.69;95.75;72612.41;5135835;27;20200;-77
2021/11/30 09:44:40;;;;;;;1.60;1.00;;;;;;;-145.69;95.51;72604.44;5136007;27;20201;-76
2021/11/30 09:47:08;;;;;;;2.27;1.07;;;;;;;-145.69;95.70;72612.41;5135913;27;20192;-76
2021/11/30 09:49:35;;;;;;;1.10;1.00;;;;;;;-145.69;97.03;72620.38;5135766;27;20197;-76
2021/11/30 09:52:01;;;;;;;3.70;1.23;;;;;;;-145.69;95.95;72598.47;5135562;27;20689;-76
2021/11/30 09:54:28;;;;;;;2.25;1.00;;;;;;;-145.69;94.57;72588.53;5135112;27;20825;-74
2021/11/30 09:56:54;;;;;;;1.37;1.00;;;;;;;-145.69;97.19;72582.56;5135600;27;20234;-76
2021/11/30 09:59:20;;;;;;;1.97;1.30;;;;;;;-145.69;96.19;72576.59;5135114;27;20196;-76
2021/11/30 10:01:48;;;;;;;1.20;0.80;;;;;;;-145.69;95.75;72568.63;5135771;27;20247;-75
2021/11/30 10:04:15;;;;;;;1.93;1.10;;;;;;;-145.69;96.32;72548.72;5135598;27;20204;-76
2021/11/30 10:06:41;;;;;;;1.63;0.83;;;;;;;-145.69;93.96;72528.81;5135466;27;20201;-76
2021/11/30 10:09:16;;;;;;;2.13;1.00;;;;;;;-145.69;95.72;72556.69;5135335;27;20200;-75
2021/11/30 10:11:43;;;;;;;2.63;0.90;;;;;;;-145.69;94.63;72536.78;5135597;27;20255;-75
2021/11/30 10:14:13;;;;;;;2.73;1.00;;;;;;;-145.69;95.56;72540.75;5134646;27;20201;-76
2021/11/30 10:16:40;;;;;;;2.63;1.10;;;;;;;-145.69;95.33;72530.81;5135411;27;20253;-76
2021/11/30 10:19:08;;;;;;;1.33;1.10;;;;;;;-145.69;97.04;72546.72;5135368;27;20201;-76
2021/11/30 10:21:35;;;;;;;1.50;1.00;;;;;;;-145.69;97.46;72546.72;5134847;27;20242;-76
2021/11/30 10:24:04;;;;;;;1.23;1.00;;;;;;;-145.69;96.62;72530.81;5135192;27;20196;-75
2021/11/30 10:26:33;;;;;;;2.50;1.20;;;;;;;-145.69;97.01;72510.91;5135126;27;20192;-76
2021/11/30 10:29:04;;;;;;;3.23;1.20;;;;;;;-145.69;95.90;72518.88;5135169;27;20200;-76
2021/11/30 10:31:33;;;;;;;1.50;1.10;;;;;;;-145.69;97.64;72524.84;5134227;27;20220;-76
2021/11/30 10:34:02;;;;;;;2.90;1.10;;;;;;;-145.69;96.62;72506.91;5135071;27;20283;-76
2021/11/30 10:36:29;;;;;;;3.23;1.30;;;;;;;-145.69;96.59;72512.91;5134723;27;20200;-75
2021/11/30 10:38:56;;;;;;;3.60;0.97;;;;;;;-145.69;96.36;72504.94;5134965;27;20196;-76
2021/11/30 10:41:25;;;;;;;1.60;0.97;;;;;;;-145.69;95.51;72498.97;5135172;27;20230;-76
2021/11/30 10:43:54;;;;;;;3.37;1.70;;;;;;;-145.69;97.27;72498.97;5134932;27;20201;-76
2021/11/30 10:46:27;;;;;;;1.80;1.13;;;;;;;-145.69;96.88;72491.00;5134600;27;20540;-76
2021/11/30 10:48:55;;;;;;;1.60;1.40;;;;;;;-145.69;96.50;72471.09;5134616;27;20204;-77
2021/11/30 10:51:22;;;;;;;8.27;2.77;;;;;;;-145.69;97.28;72485.03;5134702;27;20208;-76
2021/11/30 10:53:56;;;;;;;5.47;2.10;;;;;;;-145.69;97.33;72498.97;5134707;27;20193;-76
2021/11/30 10:56:22;;;;;;;2.20;1.60;;;;;;;-145.69;97.69;72500.94;5134487;27;20693;-76
2021/11/30 10:58:53;;;;;;;2.37;1.10;;;;;;;-145.69;98.14;72500.94;5122655;27;20594;-76
2021/11/30 11:01:21;;;;;;;1.50;1.20;;;;;;;-145.69;99.13;72493.00;5113824;28;20205;-76
2021/11/30 11:04:02;;;;;;;1.97;1.40;;;;;;;-145.69;97.34;72489.00;5114208;28;20201;-75
2021/11/30 11:06:29;;;;;;;2.53;1.67;;;;;;;-145.69;97.66;72481.03;5113950;28;20205;-76
2021/11/30 11:09:00;;;;;;;1.67;1.00;;;;;;;-145.69;98.50;72485.03;5114254;28;20205;-76
2021/11/30 11:11:28;;;;;;;1.33;0.70;;;;;;;-145.69;98.15;72471.09;5113626;28;20250;-76
2021/11/30 11:13:56;;;;;;;2.33;0.90;;;;;;;-145.69;98.16;72459.16;5113475;28;20250;-77
2021/11/30 11:16:26;;;;;;;0.93;0.80;;;;;;;-145.69;97.61;72487.00;5113504;28;20205;-75
2021/11/30 11:18:58;;;;;;;4.27;1.10;;;;;;;-145.69;98.71;72483.03;5113738;28;20214;-75
2021/11/30 11:21:32;;;;;;;2.30;0.87;;;;;;;-145.69;98.91;72477.06;5113482;28;20229;-75